Aérodrome :
LOGIN :

S'inscrire | Disclaimer

   EN    FR    IT 

 










Légende :    VFR   VFR Marginal   IFR   IFR Intensif   IFR Très Intensif
Visi : 
Plafond : 
>= 8 km
>= 3000ft
5 à 8 km
1000 à 3000 ft
1500m à 5 km
500 à 1000 ft
800 à 1500m
200 à 500 ft
< 800m
< 200 ft
Symboles :   Orages  Brouillard  Fortes neiges  Fortes précipitations  Vent > 20 kt
SIGMETs :   Divers  Orages  Givrage  Turbulence  Onde Orograph.  Cendres Volcan.






- Altitude de l'aérodrome : 1273 ft
- Code IATA : LJU


LJLJ - Ljubljana

DERNIER METAR :
  • 221400Z 10006KT 9999 SCT060 07/M04 Q1021 NOSIG

METARs EXPIRÉS :
  • 221330Z 12006KT 9999 FEW060 08/M04 Q1021 NOSIG
  • 221300Z 08005KT 040V120 9999 FEW060 07/M04 Q1021 NOSIG
  • 221230Z 06003KT 360V120 9999 FEW060 07/M05 Q1021 NOSIG
  • 221200Z 08005KT 050V110 9999 FEW060 05/M04 Q1021 NOSIG
  • 221130Z 08006KT 9999 FEW060 04/M03 Q1021 NOSIG

TAF TAF LJLJ
Valide du 22 à 12h jusqu'au 23 à 12h UTC


221100Z 2212/2312 VRB02KT 9999 FEW050
PROB40 2222/2224 3000 BR BKN010
PROB40 2300/2312 0350 FZFG VV001



MET'MAP, la Météo Aéronautique d'un coup d'oeil ! - Copyright ORBIFLY Décembre 2007 - Disclaimer

ORBIFLY MET'MAP TEAM :

Programmation & Développement : Alexandra Zaïnal
Sur une idée originale de : Baudouin d'Aumeries
Assistance à la programmation : Marc-Olivier Méhu
Soutien technique & logistique : Manuel Goepfert

Contact : metmap@orbifly.com




SOURCES & CREDITS :

   NOAA